Mc Comb/Pike County/John E Lewis Field
KMCB : now visible

Airfield :











YOU CAN JOIN US ON...

 
LOGIN :

Register | Disclaimer

   EN    FR    IT 

 









Legend :    VFR   Marginal VFR   IFR   Intensive IFR   Very Intensive IFR
Visi :
Ceiling :
>= 8 km
>= 3000ft
5 to 8 km
1000 to 3000 ft
1500m to 5 km
500 to 1000 ft
800 to 1500m
200 to 500 ft
< 800m
< 200 ft
Symbols :   Thunderstorms  Fog  Heavy snow  Heavy precipitations  Wind > 20 kt






- Airport Elevation : 413 ft


KMCB - Mc Comb/Pike County/John E Lewis Field

CURRENT METAR :
  • 280807Z AUTO 12004KT 8SM BKN006 OVC075 24/24 A2991 RMK AO2 CIG 003V008 T02440239

EXPIRED METARs :
  • 280753Z AUTO 12004KT 7SM BKN004 OVC070 24/24 A2992 RMK AO2 CIG 003V008 SLP124 T02440239
  • 280721Z AUTO 11004KT 6SM BR OVC004 24/24 A2993 RMK AO2 T02440239
  • 280653Z AUTO 12004KT 6SM BR OVC005 24/24 A2993 RMK AO2 SLP129 T02440239
  • 280553Z AUTO 00000KT 7SM OVC006 24/24 A2995 RMK AO2 RAE0456 CIG 004V008 SLP136 P0000 60008 T02440239 10256 20239 402940183 58006

TAF KMCB
Valid from the 28 at 06:00 until the 29 at 06:00 UTC


280520Z 2806/2906 11004KT 5SM BR BKN004 OVC011
FM280700 VRB04KT 3SM SHRA BR OVC003
FM281000 10005KT 4SM SHRA BR OVC003
FM290000 02016KT 5SM SHRA BR OVC008 WS020/09040KT
FM290300 28010KT 5SM SHRA BR OVC003
KZHU FIR / North America



MET'MAP, your aeronautical weather chart ! - Copyright ORBIFLY December 2007 - Disclaimer

ORBIFLY MET'MAP TEAM :

Programming & Development : Alexandra Zaïnal
Concept & original design : Baudouin d'Aumeries
Assistance for programming : Marc-Olivier Méhu
Technical & hardware support : Manuel Goepfert

Contact : metmap@orbifly.com




SOURCES & CREDITS :

   NOAA       Earth
Advisory